sensor_id;sensor_type;location;lat;lon;timestamp;pressure;altitude;pressure_sealevel;temperature;humidity
21879;BME280;27908;42.708;23.278;2022-07-10T00:01:24;-2200.28;;;15.24;100.00
21879;BME280;27908;42.708;23.278;2022-07-10T00:03:49;-2198.81;;;14.94;100.00
21879;BME280;27908;42.708;23.278;2022-07-10T00:06:16;-1876.31;;;15.06;100.00
21879;BME280;27908;42.708;23.278;2022-07-10T00:08:41;-1876.41;;;15.08;100.00
21879;BME280;27908;42.708;23.278;2022-07-10T00:11:08;-1876.38;;;15.07;100.00
21879;BME280;27908;42.708;23.278;2022-07-10T00:13:34;-2199.59;;;15.10;100.00
21879;BME280;27908;42.708;23.278;2022-07-10T00:16:00;-2198.56;;;14.89;100.00
21879;BME280;27908;42.708;23.278;2022-07-10T00:18:27;-2198.88;;;14.95;100.00
21879;BME280;27908;42.708;23.278;2022-07-10T00:20:53;-2199.16;;;15.01;100.00
21879;BME280;27908;42.708;23.278;2022-07-10T00:23:19;-2197.75;;;14.73;100.00
21879;BME280;27908;42.708;23.278;2022-07-10T00:25:44;-2198.50;;;14.88;100.00
21879;BME280;27908;42.708;23.278;2022-07-10T00:28:10;-2520.81;;;14.76;100.00
21879;BME280;27908;42.708;23.278;2022-07-10T00:30:36;-2521.19;;;14.83;100.00
21879;BME280;27908;42.708;23.278;2022-07-10T00:33:02;-2844.44;;;14.88;100.00
21879;BME280;27908;42.708;23.278;2022-07-10T00:35:28;-2844.16;;;14.84;100.00
21879;BME280;27908;42.708;23.278;2022-07-10T00:37:53;-2844.22;;;14.85;100.00
21879;BME280;27908;42.708;23.278;2022-07-10T00:40:19;-2844.06;;;14.82;100.00
21879;BME280;27908;42.708;23.278;2022-07-10T00:42:45;-2843.34;;;14.70;100.00
21879;BME280;27908;42.708;23.278;2022-07-10T00:45:10;-3166.13;;;14.69;100.00
21879;BME280;27908;42.708;23.278;2022-07-10T00:47:36;-3167.13;;;14.85;100.00
21879;BME280;27908;42.708;23.278;2022-07-10T00:50:03;-3167.28;;;14.87;100.00
21879;BME280;27908;42.708;23.278;2022-07-10T00:52:28;-3167.13;;;14.85;100.00
21879;BME280;27908;42.708;23.278;2022-07-10T00:54:54;-3490.03;;;14.85;100.00
21879;BME280;27908;42.708;23.278;2022-07-10T00:57:20;-3166.59;;;14.77;100.00
21879;BME280;27908;42.708;23.278;2022-07-10T00:59:48;-3489.81;;;14.82;100.00
21879;BME280;27908;42.708;23.278;2022-07-10T01:02:14;-3490.00;;;14.85;100.00
21879;BME280;27908;42.708;23.278;2022-07-10T01:04:41;-3489.19;;;14.73;100.00
21879;BME280;27908;42.708;23.278;2022-07-10T01:07:06;-3812.63;;;14.82;100.00
21879;BME280;27908;42.708;23.278;2022-07-10T01:09:33;-3812.09;;;14.75;100.00
21879;BME280;27908;42.708;23.278;2022-07-10T01:12:02;-3812.56;;;14.81;100.00
21879;BME280;27908;42.708;23.278;2022-07-10T01:14:29;-3812.16;;;14.76;100.00
21879;BME280;27908;42.708;23.278;2022-07-10T01:16:55;-3811.88;;;14.72;100.00
21879;BME280;27908;42.708;23.278;2022-07-10T01:19:20;-3811.31;;;14.64;100.00
21879;BME280;27908;42.708;23.278;2022-07-10T01:21:46;-4134.34;;;14.68;100.00
21879;BME280;27908;42.708;23.278;2022-07-10T01:24:11;-4132.84;;;14.50;100.00
21879;BME280;27908;42.708;23.278;2022-07-10T01:26:38;-4457.59;;;14.75;100.00
21879;BME280;27908;42.708;23.278;2022-07-10T01:29:08;-4456.44;;;14.61;100.00
21879;BME280;27908;42.708;23.278;2022-07-10T01:31:34;-4778.53;;;14.56;100.00
21879;BME280;27908;42.708;23.278;2022-07-10T01:34:01;-4457.34;;;14.72;100.00
21879;BME280;27908;42.708;23.278;2022-07-10T01:36:29;-4457.59;;;14.75;100.00
21879;BME280;27908;42.708;23.278;2022-07-10T01:38:55;-4456.84;;;14.66;100.00
21879;BME280;27908;42.708;23.278;2022-07-10T01:41:22;-4456.78;;;14.65;100.00
21879;BME280;27908;42.708;23.278;2022-07-10T01:43:48;-4456.03;;;14.57;100.00
21879;BME280;27908;42.708;23.278;2022-07-10T01:46:14;-4456.19;;;14.58;100.00
21879;BME280;27908;42.708;23.278;2022-07-10T01:48:41;-4456.63;;;14.63;100.00
21879;BME280;27908;42.708;23.278;2022-07-10T01:51:08;-4456.22;;;14.59;100.00
21879;BME280;27908;42.708;23.278;2022-07-10T01:53:34;-4777.81;;;14.48;100.00
21879;BME280;27908;42.708;23.278;2022-07-10T01:56:03;-4777.91;;;14.49;100.00
21879;BME280;27908;42.708;23.278;2022-07-10T01:58:28;-4778.31;;;14.53;100.00
21879;BME280;27908;42.708;23.278;2022-07-10T02:00:54;-4778.78;;;14.58;100.00
21879;BME280;27908;42.708;23.278;2022-07-10T02:03:19;-4778.97;;;14.60;100.00
21879;BME280;27908;42.708;23.278;2022-07-10T02:06:03;-4778.41;;;14.54;100.00
21879;BME280;27908;42.708;23.278;2022-07-10T02:08:29;-4775.44;;;14.22;100.00
21879;BME280;27908;42.708;23.278;2022-07-10T02:10:54;-5100.94;;;14.54;100.00
21879;BME280;27908;42.708;23.278;2022-07-10T02:13:20;-5098.56;;;14.29;100.00
21879;BME280;27908;42.708;23.278;2022-07-10T02:15:48;-5417.84;;;13.99;100.00
21879;BME280;27908;42.708;23.278;2022-07-10T02:18:14;-5422.88;;;14.48;100.00
21879;BME280;27908;42.708;23.278;2022-07-10T02:20:40;-5419.28;;;14.13;100.00
21879;BME280;27908;42.708;23.278;2022-07-10T02:23:05;-5420.53;;;14.25;100.00
21879;BME280;27908;42.708;23.278;2022-07-10T02:25:32;-5417.84;;;13.99;100.00
21879;BME280;27908;42.708;23.278;2022-07-10T02:27:58;-5741.38;;;14.11;100.00
21879;BME280;27908;42.708;23.278;2022-07-10T02:30:23;-5745.31;;;14.47;100.00
21879;BME280;27908;42.708;23.278;2022-07-10T02:32:49;-5740.03;;;13.98;100.00
21879;BME280;27908;42.708;23.278;2022-07-10T02:35:14;-5742.66;;;14.23;100.00
21879;BME280;27908;42.708;23.278;2022-07-10T02:37:39;-5742.97;;;14.25;100.00
21879;BME280;27908;42.708;23.278;2022-07-10T02:40:05;-6067.59;;;14.46;100.00
21879;BME280;27908;42.708;23.278;2022-07-10T02:42:31;-6063.13;;;14.06;100.00
21879;BME280;27908;42.708;23.278;2022-07-10T02:44:56;-6067.09;;;14.41;100.00
21879;BME280;27908;42.708;23.278;2022-07-10T02:47:22;-6065.94;;;14.31;100.00
21879;BME280;27908;42.708;23.278;2022-07-10T02:49:47;-6388.09;;;14.29;100.00
21879;BME280;27908;42.708;23.278;2022-07-10T02:52:13;-6386.94;;;14.20;100.00
21879;BME280;27908;42.708;23.278;2022-07-10T02:54:38;-6386.97;;;14.20;100.00
21879;BME280;27908;42.708;23.278;2022-07-10T02:57:04;-6065.19;;;14.24;100.00
21879;BME280;27908;42.708;23.278;2022-07-10T02:59:30;-6066.16;;;14.33;100.00
21879;BME280;27908;42.708;23.278;2022-07-10T03:01:55;-6387.28;;;14.23;100.00
21879;BME280;27908;42.708;23.278;2022-07-10T03:04:21;-6388.75;;;14.35;100.00
21879;BME280;27908;42.708;23.278;2022-07-10T03:06:47;-6383.53;;;13.91;100.00
21879;BME280;27908;42.708;23.278;2022-07-10T03:09:12;-6389.44;;;14.41;100.00
21879;BME280;27908;42.708;23.278;2022-07-10T03:11:37;-6389.44;;;14.41;100.00
21879;BME280;27908;42.708;23.278;2022-07-10T03:14:03;-6384.22;;;13.97;100.00
21879;BME280;27908;42.708;23.278;2022-07-10T03:16:29;-6387.97;;;14.28;100.00
21879;BME280;27908;42.708;23.278;2022-07-10T03:18:54;-6389.50;;;14.41;100.00
21879;BME280;27908;42.708;23.278;2022-07-10T03:21:20;-6387.03;;;14.21;100.00
21879;BME280;27908;42.708;23.278;2022-07-10T03:23:45;-6391.03;;;14.54;100.00
21879;BME280;27908;42.708;23.278;2022-07-10T03:26:11;-6387.16;;;14.22;100.00
21879;BME280;27908;42.708;23.278;2022-07-10T03:28:36;-6707.53;;;14.06;100.00
21879;BME280;27908;42.708;23.278;2022-07-10T03:31:02;-6389.16;;;14.38;100.00
21879;BME280;27908;42.708;23.278;2022-07-10T03:33:27;-6712.50;;;14.46;100.00
21879;BME280;27908;42.708;23.278;2022-07-10T03:35:54;-6712.69;;;14.48;100.00
21879;BME280;27908;42.708;23.278;2022-07-10T03:38:19;-6715.19;;;14.68;100.00
21879;BME280;27908;42.708;23.278;2022-07-10T03:40:45;-6380.59;;;13.66;100.00
21879;BME280;27908;42.708;23.278;2022-07-10T03:43:13;-6712.88;;;14.49;100.00
21879;BME280;27908;42.708;23.278;2022-07-10T03:45:39;-6715.81;;;14.73;100.00
21879;BME280;27908;42.708;23.278;2022-07-10T03:48:04;-6709.91;;;14.25;100.00
21879;BME280;27908;42.708;23.278;2022-07-10T03:50:30;-6716.00;;;14.74;100.00
21879;BME280;27908;42.708;23.278;2022-07-10T03:52:55;-7036.53;;;14.59;100.00
21879;BME280;27908;42.708;23.278;2022-07-10T03:55:21;-7040.44;;;14.89;100.00
21879;BME280;27908;42.708;23.278;2022-07-10T03:57:46;-7040.16;;;14.87;100.00
21879;BME280;27908;42.708;23.278;2022-07-10T04:00:28;-7038.91;;;14.77;100.00
21879;BME280;27908;42.708;23.278;2022-07-10T04:02:57;-7041.75;;;14.99;100.00
21879;BME280;27908;42.708;23.278;2022-07-10T04:05:24;-7040.88;;;14.93;100.00
21879;BME280;27908;42.708;23.278;2022-07-10T04:07:49;-7043.75;;;15.15;100.00
21879;BME280;27908;42.708;23.278;2022-07-10T04:10:15;-7044.38;;;15.20;100.00
21879;BME280;27908;42.708;23.278;2022-07-10T04:12:41;-7038.06;;;14.71;100.00
21879;BME280;27908;42.708;23.278;2022-07-10T04:15:07;-7369.78;;;15.39;100.00
21879;BME280;27908;42.708;23.278;2022-07-10T04:17:32;-7369.91;;;15.40;100.00
21879;BME280;27908;42.708;23.278;2022-07-10T04:20:01;-7045.91;;;15.31;100.00
21879;BME280;27908;42.708;23.278;2022-07-10T04:22:27;-7049.22;;;15.57;100.00
21879;BME280;27908;42.708;23.278;2022-07-10T04:24:55;-7050.56;;;15.67;100.00
21879;BME280;27908;42.708;23.278;2022-07-10T04:27:21;-7051.28;;;15.73;100.00
21879;BME280;27908;42.708;23.278;2022-07-10T04:29:47;-7052.59;;;15.83;100.00
21879;BME280;27908;42.708;23.278;2022-07-10T04:32:14;-7052.69;;;15.84;100.00
21879;BME280;27908;42.708;23.278;2022-07-10T04:34:40;-7054.59;;;15.99;100.00
21879;BME280;27908;42.708;23.278;2022-07-10T04:37:06;-6407.16;;;15.90;100.00
21879;BME280;27908;42.708;23.278;2022-07-10T04:39:35;-5761.16;;;15.94;100.00
21879;BME280;27908;42.708;23.278;2022-07-10T04:42:03;-6085.63;;;16.04;100.00
21879;BME280;27908;42.708;23.278;2022-07-10T04:44:29;-6086.19;;;16.09;100.00
21879;BME280;27908;42.708;23.278;2022-07-10T04:46:54;-6087.25;;;16.19;100.00
21879;BME280;27908;42.708;23.278;2022-07-10T04:49:20;-6412.06;;;16.31;100.00
21879;BME280;27908;42.708;23.278;2022-07-10T04:51:45;-5765.91;;;16.38;100.00
21879;BME280;27908;42.708;23.278;2022-07-10T04:54:10;-5442.63;;;16.39;100.00
21879;BME280;27908;42.708;23.278;2022-07-10T04:56:36;-5767.28;;;16.50;100.00
21879;BME280;27908;42.708;23.278;2022-07-10T04:59:01;-6090.38;;;16.46;100.00
21879;BME280;27908;42.708;23.278;2022-07-10T05:01:27;-5445.69;;;16.70;100.00
21879;BME280;27908;42.708;23.278;2022-07-10T05:03:53;-5118.13;;;16.30;100.00
21879;BME280;27908;42.708;23.278;2022-07-10T05:06:18;-4799.88;;;16.87;100.00
21879;BME280;27908;42.708;23.278;2022-07-10T05:08:44;-4799.28;;;16.80;100.00
21879;BME280;27908;42.708;23.278;2022-07-10T05:11:10;-5125.47;;;17.05;100.00
21879;BME280;27908;42.708;23.278;2022-07-10T05:13:36;-4153.22;;;17.00;100.00
21879;BME280;27908;42.708;23.278;2022-07-10T05:16:02;-4154.00;;;17.09;100.00
21879;BME280;27908;42.708;23.278;2022-07-10T05:18:28;-3506.06;;;17.11;100.00
21879;BME280;27908;42.708;23.278;2022-07-10T05:20:53;-3830.78;;;17.20;100.00
21879;BME280;27908;42.708;23.278;2022-07-10T05:23:19;-4155.53;;;17.28;100.00
21879;BME280;27908;42.708;23.278;2022-07-10T05:25:44;-3830.81;;;17.20;100.00
21879;BME280;27908;42.708;23.278;2022-07-10T05:28:10;-3821.22;;;15.94;100.00
21879;BME280;27908;42.708;23.278;2022-07-10T05:30:38;-4482.78;;;17.65;100.00
21879;BME280;27908;42.708;23.278;2022-07-10T05:33:03;-3511.72;;;17.91;100.00
21879;BME280;27908;42.708;23.278;2022-07-10T05:35:29;-3187.97;;;18.03;100.00
21879;BME280;27908;42.708;23.278;2022-07-10T05:37:54;-2214.06;;;18.02;99.90
21879;BME280;27908;42.708;23.278;2022-07-10T05:40:20;-2214.50;;;18.11;99.97
21879;BME280;27908;42.708;23.278;2022-07-10T05:42:45;-915.69;;;18.18;97.54
21879;BME280;27908;42.708;23.278;2022-07-10T05:45:11;-1240.69;;;18.22;98.49
21879;BME280;27908;42.708;23.278;2022-07-10T05:47:37;-1565.59;;;18.25;100.00
21879;BME280;27908;42.708;23.278;2022-07-10T05:50:03;-1241.31;;;18.41;99.25
21879;BME280;27908;42.708;23.278;2022-07-10T05:52:28;-591.72;;;18.58;96.78
21879;BME280;27908;42.708;23.278;2022-07-10T05:54:55;-1242.78;;;18.86;97.36
21879;BME280;27908;42.708;23.278;2022-07-10T05:57:21;-267.31;;;18.98;94.85
21879;BME280;27908;42.708;23.278;2022-07-10T05:59:47;-918.06;;;19.03;95.81
21879;BME280;27908;42.708;23.278;2022-07-10T06:02:12;58.06;;;18.96;94.60
21879;BME280;27908;42.708;23.278;2022-07-10T06:04:38;1359.44;;;18.73;94.18
21879;BME280;27908;42.708;23.278;2022-07-10T06:07:04;1359.47;;;18.74;94.32
21879;BME280;27908;42.708;23.278;2022-07-10T06:09:29;2010.31;;;18.81;93.65
21879;BME280;27908;42.708;23.278;2022-07-10T06:11:55;2335.66;;;18.77;93.93
21879;BME280;27908;42.708;23.278;2022-07-10T06:14:20;2335.41;;;18.67;94.90
21879;BME280;27908;42.708;23.278;2022-07-10T06:16:46;1685.00;;;18.87;95.44
21879;BME280;27908;42.708;23.278;2022-07-10T06:19:11;2335.94;;;18.87;93.63
21879;BME280;27908;42.708;23.278;2022-07-10T06:21:37;2985.88;;;18.57;93.43
21879;BME280;27908;42.708;23.278;2022-07-10T06:24:03;3311.78;;;18.69;93.98
21879;BME280;27908;42.708;23.278;2022-07-10T06:26:28;3961.91;;;18.52;93.16
21879;BME280;27908;42.708;23.278;2022-07-10T06:28:54;3311.44;;;18.60;95.28
21879;BME280;27908;42.708;23.278;2022-07-10T06:31:19;3637.28;;;18.69;94.29
21879;BME280;27908;42.708;23.278;2022-07-10T06:33:45;4288.91;;;18.79;91.69
21879;BME280;27908;42.708;23.278;2022-07-10T06:36:10;3638.63;;;18.97;93.25
21879;BME280;27908;42.708;23.278;2022-07-10T06:38:37;4941.28;;;18.95;90.20
21879;BME280;27908;42.708;23.278;2022-07-10T06:41:03;4616.06;;;19.03;90.87
21879;BME280;27908;42.708;23.278;2022-07-10T06:43:29;4289.91;;;18.96;93.24
21879;BME280;27908;42.708;23.278;2022-07-10T06:45:55;4614.84;;;18.84;92.25
21879;BME280;27908;42.708;23.278;2022-07-10T06:48:21;4941.88;;;19.03;90.88
21879;BME280;27908;42.708;23.278;2022-07-10T06:50:47;4940.34;;;18.81;91.42
21879;BME280;27908;42.708;23.278;2022-07-10T06:53:12;4942.00;;;19.05;89.88
21879;BME280;27908;42.708;23.278;2022-07-10T06:55:38;5270.88;;;19.47;89.07
21879;BME280;27908;42.708;23.278;2022-07-10T06:58:03;4944.63;;;19.44;91.33
21879;BME280;27908;42.708;23.278;2022-07-10T07:00:29;5921.34;;;19.26;88.37
21879;BME280;27908;42.708;23.278;2022-07-10T07:02:54;5596.09;;;19.36;90.53
21879;BME280;27908;42.708;23.278;2022-07-10T07:05:20;6244.63;;;18.96;90.32
21879;BME280;27908;42.708;23.278;2022-07-10T07:07:45;5919.75;;;19.08;92.77
21879;BME280;27908;42.708;23.278;2022-07-10T07:10:11;6242.59;;;18.73;93.42
21879;BME280;27908;42.708;23.278;2022-07-10T07:12:37;5918.34;;;18.91;93.53
21879;BME280;27908;42.708;23.278;2022-07-10T07:15:03;3965.38;;;19.19;96.07
21879;BME280;27908;42.708;23.278;2022-07-10T07:17:29;4944.94;;;19.48;92.08
21879;BME280;27908;42.708;23.278;2022-07-10T07:20:11;5272.34;;;19.67;89.59
21879;BME280;27908;42.708;23.278;2022-07-10T07:22:55;6251.16;;;19.69;87.57
21879;BME280;27908;42.708;23.278;2022-07-10T07:25:37;5600.22;;;19.88;88.86
21879;BME280;27908;42.708;23.278;2022-07-10T07:28:05;5602.41;;;20.16;86.64
21879;BME280;27908;42.708;23.278;2022-07-10T07:30:31;5277.47;;;20.36;88.52
21879;BME280;27908;42.708;23.278;2022-07-10T07:33:15;5929.75;;;20.26;87.13
21879;BME280;27908;42.708;23.278;2022-07-10T07:35:41;6584.28;;;20.41;85.94
21879;BME280;27908;42.708;23.278;2022-07-10T07:38:07;7238.00;;;20.44;83.65
21879;BME280;27908;42.708;23.278;2022-07-10T07:40:33;7891.53;;;20.44;83.49
21879;BME280;27908;42.708;23.278;2022-07-10T07:42:58;6587.31;;;20.72;85.64
21879;BME280;27908;42.708;23.278;2022-07-10T07:45:25;7891.38;;;20.42;84.19
21879;BME280;27908;42.708;23.278;2022-07-10T07:47:53;9528.50;;;20.62;81.18
21879;BME280;27908;42.708;23.278;2022-07-10T07:50:25;9201.34;;;20.61;83.81
21879;BME280;27908;42.708;23.278;2022-07-10T07:52:54;8874.09;;;20.59;83.74
21879;BME280;27908;42.708;23.278;2022-07-10T07:55:20;9857.38;;;20.74;81.80
21879;BME280;27908;42.708;23.278;2022-07-10T07:57:46;8551.91;;;20.97;84.36
21879;BME280;27908;42.708;23.278;2022-07-10T08:00:14;9533.59;;;20.98;81.81
21879;BME280;27908;42.708;23.278;2022-07-10T08:02:43;11165.19;;;20.69;78.67
21879;BME280;27908;42.708;23.278;2022-07-10T08:05:09;11501.41;;;21.20;79.00
21879;BME280;27908;42.708;23.278;2022-07-10T08:07:36;14124.44;;;21.30;74.39
21879;BME280;27908;42.708;23.278;2022-07-10T08:10:03;13141.53;;;21.31;78.20
21879;BME280;27908;42.708;23.278;2022-07-10T08:12:28;14452.91;;;21.33;76.49
21879;BME280;27908;42.708;23.278;2022-07-10T08:14:54;14780.28;;;21.31;76.16
21879;BME280;27908;42.708;23.278;2022-07-10T08:17:19;14786.09;;;21.56;75.99
21879;BME280;27908;42.708;23.278;2022-07-10T08:19:46;14458.66;;;21.58;77.76
21879;BME280;27908;42.708;23.278;2022-07-10T08:22:12;16423.28;;;21.44;75.47
21879;BME280;27908;42.708;23.278;2022-07-10T08:24:37;17427.66;;;21.61;72.47
21879;BME280;27908;42.708;23.278;2022-07-10T08:27:03;17624.19;;;21.67;73.61
21879;BME280;27908;42.708;23.278;2022-07-10T08:29:28;18477.34;;;21.90;71.72
21879;BME280;27908;42.708;23.278;2022-07-10T08:31:54;18293.97;;;22.13;71.88
21879;BME280;27908;42.708;23.278;2022-07-10T08:34:19;19485.13;;;22.29;70.45
21879;BME280;27908;42.708;23.278;2022-07-10T08:36:44;20779.38;;;22.28;69.98
21879;BME280;27908;42.708;23.278;2022-07-10T08:39:10;20136.50;;;22.42;71.42
21879;BME280;27908;42.708;23.278;2022-07-10T08:41:36;22246.03;;;22.62;68.06
21879;BME280;27908;42.708;23.278;2022-07-10T08:44:02;21881.03;;;22.63;70.06
21879;BME280;27908;42.708;23.278;2022-07-10T08:46:27;22803.16;;;22.67;70.18
21879;BME280;27908;42.708;23.278;2022-07-10T08:48:55;24306.03;;;22.68;68.88
21879;BME280;27908;42.708;23.278;2022-07-10T08:51:30;22306.53;;;22.95;71.60
21879;BME280;27908;42.708;23.278;2022-07-10T08:54:00;24275.75;;;23.16;67.64
21879;BME280;27908;42.708;23.278;2022-07-10T08:56:26;24287.78;;;23.07;69.04
21879;BME280;27908;42.708;23.278;2022-07-10T08:58:52;25886.53;;;23.06;67.74
21879;BME280;27908;42.708;23.278;2022-07-10T09:01:19;26296.25;;;23.12;68.57
21879;BME280;27908;42.708;23.278;2022-07-10T09:03:49;28485.19;;;23.14;65.58
21879;BME280;27908;42.708;23.278;2022-07-10T09:06:15;27249.59;;;23.42;66.52
21879;BME280;27908;42.708;23.278;2022-07-10T09:08:58;27322.00;;;23.66;66.39
21879;BME280;27908;42.708;23.278;2022-07-10T09:11:23;28740.78;;;23.88;64.36
21879;BME280;27908;42.708;23.278;2022-07-10T09:13:52;31411.41;;;23.69;62.82
21879;BME280;27908;42.708;23.278;2022-07-10T09:16:37;33101.19;;;23.46;63.45
21879;BME280;27908;42.708;23.278;2022-07-10T09:19:25;34046.19;;;23.45;62.55
21879;BME280;27908;42.708;23.278;2022-07-10T09:21:55;31828.91;;;23.57;67.97
21879;BME280;27908;42.708;23.278;2022-07-10T09:24:24;33626.09;;;23.37;66.18
21879;BME280;27908;42.708;23.278;2022-07-10T09:29:22;33615.00;;;23.55;66.50
21879;BME280;27908;42.708;23.278;2022-07-10T09:31:55;34391.34;;;23.76;63.05
21879;BME280;27908;42.708;23.278;2022-07-10T09:34:48;34561.88;;;24.09;62.03
21879;BME280;27908;42.708;23.278;2022-07-10T09:37:27;34447.66;;;24.13;63.30
21879;BME280;27908;42.708;23.278;2022-07-10T09:40:13;35656.78;;;24.56;60.10
21879;BME280;27908;42.708;23.278;2022-07-10T09:42:42;36445.00;;;24.71;59.99
21879;BME280;27908;42.708;23.278;2022-07-10T09:47:38;40710.69;;;24.08;62.12
21879;BME280;27908;42.708;23.278;2022-07-10T09:50:19;40347.72;;;24.16;63.64
21879;BME280;27908;42.708;23.278;2022-07-10T09:52:46;42412.94;;;24.05;58.06
21879;BME280;27908;42.708;23.278;2022-07-10T09:55:13;43067.28;;;24.33;58.32
21879;BME280;27908;42.708;23.278;2022-07-10T09:57:40;42933.56;;;24.46;59.35
21879;BME280;27908;42.708;23.278;2022-07-10T10:00:09;43637.50;;;24.29;59.36
21879;BME280;27908;42.708;23.278;2022-07-10T10:02:37;43336.59;;;24.18;61.97
21879;BME280;27908;42.708;23.278;2022-07-10T10:05:04;43393.16;;;24.69;58.66
21879;BME280;27908;42.708;23.278;2022-07-10T10:07:31;44227.81;;;24.90;56.30
21879;BME280;27908;42.708;23.278;2022-07-10T10:10:01;44044.56;;;24.65;60.58
21879;BME280;27908;42.708;23.278;2022-07-10T10:12:39;45039.41;;;24.42;60.06
21879;BME280;27908;42.708;23.278;2022-07-10T10:15:11;46426.31;;;23.57;61.55
21879;BME280;27908;42.708;23.278;2022-07-10T10:17:40;45917.75;;;23.46;64.72
21879;BME280;27908;42.708;23.278;2022-07-10T10:20:07;46214.63;;;23.37;63.92
21879;BME280;27908;42.708;23.278;2022-07-10T10:22:52;46479.63;;;23.18;64.96
21879;BME280;27908;42.708;23.278;2022-07-10T10:25:20;46205.69;;;23.53;63.04
21879;BME280;27908;42.708;23.278;2022-07-10T10:27:47;45804.94;;;24.03;61.41
21879;BME280;27908;42.708;23.278;2022-07-10T10:30:13;45249.00;;;24.34;62.38
21879;BME280;27908;42.708;23.278;2022-07-10T10:32:41;46366.53;;;24.16;59.72
21879;BME280;27908;42.708;23.278;2022-07-10T10:35:07;45423.84;;;24.57;60.70
21879;BME280;27908;42.708;23.278;2022-07-10T10:37:39;45589.38;;;24.66;60.07
21879;BME280;27908;42.708;23.278;2022-07-10T10:40:11;45555.22;;;24.69;60.32
21879;BME280;27908;42.708;23.278;2022-07-10T10:42:55;45188.81;;;24.87;61.02
21879;BME280;27908;42.708;23.278;2022-07-10T10:48:10;46885.16;;;24.53;58.34
21879;BME280;27908;42.708;23.278;2022-07-10T10:50:48;47715.25;;;24.56;55.79
21879;BME280;27908;42.708;23.278;2022-07-10T10:53:21;47477.16;;;24.57;57.33
21879;BME280;27908;42.708;23.278;2022-07-10T11:01:24;47660.84;;;24.39;58.53
21879;BME280;27908;42.708;23.278;2022-07-10T11:06:44;46676.41;;;24.93;58.98
21879;BME280;27908;42.708;23.278;2022-07-10T11:09:26;46387.13;;;25.37;57.10
21879;BME280;27908;42.708;23.278;2022-07-10T11:12:09;46781.84;;;25.33;57.22
21879;BME280;27908;42.708;23.278;2022-07-10T11:14:39;46851.69;;;25.57;55.80
21879;BME280;27908;42.708;23.278;2022-07-10T11:17:07;47957.09;;;25.06;56.32
21879;BME280;27908;42.708;23.278;2022-07-10T11:19:34;48035.28;;;24.66;58.65
21879;BME280;27908;42.708;23.278;2022-07-10T11:27:41;47969.25;;;25.02;58.43
21879;BME280;27908;42.708;23.278;2022-07-10T11:30:12;47708.97;;;25.22;58.02
21879;BME280;27908;42.708;23.278;2022-07-10T11:32:37;48377.47;;;24.82;59.15
21879;BME280;27908;42.708;23.278;2022-07-10T11:35:12;48798.38;;;24.92;56.11
21879;BME280;27908;42.708;23.278;2022-07-10T11:37:51;48561.88;;;24.92;58.35
21879;BME280;27908;42.708;23.278;2022-07-10T11:40:17;48765.75;;;24.94;56.90
21879;BME280;27908;42.708;23.278;2022-07-10T11:43:03;48461.53;;;25.13;58.33
21879;BME280;27908;42.708;23.278;2022-07-10T11:45:32;48122.53;;;25.32;58.59
21879;BME280;27908;42.708;23.278;2022-07-10T11:47:59;49403.28;;;25.27;53.92
21879;BME280;27908;42.708;23.278;2022-07-10T11:50:25;49412.59;;;25.19;56.34
21879;BME280;27908;42.708;23.278;2022-07-10T11:52:52;49439.41;;;25.46;53.51
21879;BME280;27908;42.708;23.278;2022-07-10T11:55:22;50125.97;;;25.27;54.73
21879;BME280;27908;42.708;23.278;2022-07-10T11:57:48;50246.63;;;25.18;54.97
21879;BME280;27908;42.708;23.278;2022-07-10T12:00:29;49850.53;;;25.40;56.19
21879;BME280;27908;42.708;23.278;2022-07-10T12:02:56;50988.13;;;25.15;53.42
21879;BME280;27908;42.708;23.278;2022-07-10T12:05:37;50710.13;;;25.32;53.90
21879;BME280;27908;42.708;23.278;2022-07-10T12:08:04;50658.47;;;25.32;54.63
21879;BME280;27908;42.708;23.278;2022-07-10T12:10:31;50438.94;;;25.40;55.92
21879;BME280;27908;42.708;23.278;2022-07-10T12:13:12;51768.44;;;25.09;52.33
21879;BME280;27908;42.708;23.278;2022-07-10T12:15:43;51794.09;;;24.87;54.76
21879;BME280;27908;42.708;23.278;2022-07-10T12:18:15;51942.75;;;24.87;54.90
21879;BME280;27908;42.708;23.278;2022-07-10T12:20:42;51767.94;;;24.90;55.29
21879;BME280;27908;42.708;23.278;2022-07-10T12:23:11;51690.69;;;25.22;54.05
21879;BME280;27908;42.708;23.278;2022-07-10T12:25:38;52988.91;;;24.64;51.40
21879;BME280;27908;42.708;23.278;2022-07-10T12:28:03;53428.69;;;24.46;51.94
21879;BME280;27908;42.708;23.278;2022-07-10T12:30:43;52954.69;;;24.81;52.50
21879;BME280;27908;42.708;23.278;2022-07-10T12:33:13;53559.25;;;24.34;51.42
21879;BME280;27908;42.708;23.278;2022-07-10T12:35:53;53389.78;;;24.67;51.73
21879;BME280;27908;42.708;23.278;2022-07-10T12:38:23;53275.66;;;24.73;52.92
21879;BME280;27908;42.708;23.278;2022-07-10T12:40:49;54029.66;;;24.64;50.08
21879;BME280;27908;42.708;23.278;2022-07-10T12:43:25;54938.72;;;24.48;46.92
21879;BME280;27908;42.708;23.278;2022-07-10T12:46:11;54770.13;;;24.57;49.23
21879;BME280;27908;42.708;23.278;2022-07-10T12:48:37;54739.59;;;24.96;49.36
21879;BME280;27908;42.708;23.278;2022-07-10T12:51:25;54521.44;;;25.38;48.41
21879;BME280;27908;42.708;23.278;2022-07-10T12:53:51;55262.88;;;25.31;46.59
21879;BME280;27908;42.708;23.278;2022-07-10T12:56:36;56404.59;;;25.12;43.58
21879;BME280;27908;42.708;23.278;2022-07-10T12:59:11;56652.31;;;25.06;44.19
21879;BME280;27908;42.708;23.278;2022-07-10T13:01:42;57073.38;;;25.05;43.80
21879;BME280;27908;42.708;23.278;2022-07-10T13:04:07;57524.22;;;24.92;42.59
21879;BME280;27908;42.708;23.278;2022-07-10T13:06:37;57431.41;;;24.67;44.13
21879;BME280;27908;42.708;23.278;2022-07-10T13:09:18;57844.81;;;24.72;43.51
21879;BME280;27908;42.708;23.278;2022-07-10T13:11:44;57432.44;;;24.97;46.42
21879;BME280;27908;42.708;23.278;2022-07-10T13:14:09;57413.16;;;25.74;42.51